CHO weather

Cholila Airport
Cholila, Chubut Province, Argentina

Public forecast

Using degrees Celsius for public forecast. Weather courtesy of forecast.io.

Closest aviation weather report (METAR) to Cholila Airport

Report is more than 6 hours old.

Closest report is Brigadier Antonio Parodi Airport, 29.1 nm (53.9 km) SSE. Retrieved 2020/03/13 13:33 UTC (26 days ago):

SAVE 131333Z 25009KT 220V290 4000 SHRA FEW030TCU BKN035 13/11 Q1008

Closest aviation forecast (TAF) to Cholila Airport

Forecast is more than 12 hours old.

Closest forecast is Brigadier Antonio Parodi Airport, 29.1 nm (53.9 km) SSE. Retrieved 2019/04/29 06:00 UTC (12 months ago):

TAF SAVE 290500Z 2906/3006 27015KT 9999 SCT030 SCT080 TX10/2919Z TN01/2910Z BECMG 2911/2913 25020G40KT BKN023 BECMG 2919/2921 29020KT